VTSP/HKT METAR and TAF weather

Enter ICAO airport designator
Station Type Date Time Source
VTSP METAR 2020/03/31 13:30 UTC NOAA

VTSP 311330Z 29004KT 260V320 9999 FEW020 28/23 Q1009 NOSIG


Station Type Date Time Source
VTSP Decoded METAR 2020/03/31 13:30 UTC NOAA

Phuket Airport, Thailand (VTSP) 08-07N 098-19E 10M
Mar 31, 2020 - 09:30 AM EDT / 2020.03.31 1330 UTC
Wind: from the WNW (290 degrees) at 5 MPH (4 KT) (direction variable):0
Visibility: greater than 7 mile(s):0
Sky conditions: mostly clear
Temperature: 82 F (28 C)
Dew Point: 73 F (23 C)
Relative Humidity: 74%
Pressure (altimeter): 29.80 in. Hg (1009 hPa)
ob: VTSP 311330Z 29004KT 260V320 9999 FEW020 28/23 Q1009 NOSIG
cycle: 13

Station Type Date Time Source
VTSP TAF 2020/03/31 12:37 UTC NOAA

TAF VTSP 311100Z 3112/0118 30009KT 9999 FEW020
BECMG 3118/3120 00000KT
BECMG 3122/3124 08006KT
BECMG 0102/0104 30008KT

Example: see airport list